createdAt,value
2019-05-03T00:01:41.980Z,4.15
2019-05-03T00:04:12.096Z,4.15
2019-05-03T00:06:42.604Z,2.98
2019-05-03T00:09:13.014Z,3.33
2019-05-03T00:11:42.196Z,4.10
2019-05-03T00:14:12.437Z,4.08
2019-05-03T00:16:46.476Z,5.55
2019-05-03T00:19:15.329Z,3.65
2019-05-03T00:21:44.033Z,5.50
2019-05-03T00:24:12.865Z,4.75
2019-05-03T00:26:42.718Z,9.33
2019-05-03T00:29:12.728Z,6.03
2019-05-03T00:31:44.207Z,5.70
2019-05-03T00:34:21.850Z,5.50
2019-05-03T00:36:58.065Z,6.37
2019-05-03T00:39:30.003Z,7.45
2019-05-03T00:41:59.813Z,5.55
2019-05-03T00:44:29.073Z,7.60
2019-05-03T00:46:57.693Z,5.55
2019-05-03T00:49:26.523Z,5.55
2019-05-03T00:51:55.270Z,11.18
2019-05-03T00:54:23.977Z,4.55
2019-05-03T00:56:52.759Z,5.72
2019-05-03T00:59:22.151Z,5.50
2019-05-03T01:01:52.139Z,6.50
2019-05-03T01:04:22.693Z,4.00
2019-05-03T01:06:52.717Z,4.45
2019-05-03T01:09:23.605Z,3.83
2019-05-03T01:11:55.887Z,3.45
2019-05-03T01:14:28.100Z,3.75
2019-05-03T01:16:58.351Z,4.20
2019-05-03T01:19:27.093Z,3.40
2019-05-03T01:21:55.890Z,3.60
2019-05-03T01:24:24.684Z,3.55
2019-05-03T01:26:53.389Z,3.67
2019-05-03T01:29:22.793Z,3.47
2019-05-03T01:31:52.809Z,7.37
2019-05-03T01:34:22.017Z,4.08
2019-05-03T01:36:51.971Z,3.00
2019-05-03T01:39:22.265Z,2.77
2019-05-03T01:41:51.944Z,1.95
2019-05-03T01:44:22.072Z,2.65
2019-05-03T01:46:52.581Z,3.60
2019-05-03T01:49:22.949Z,3.35
2019-05-03T01:51:53.229Z,2.10
2019-05-03T01:54:22.867Z,3.58
2019-05-03T01:56:58.894Z,4.67
2019-05-03T01:59:24.709Z,2.27
2019-05-03T02:02:03.215Z,2.60
2019-05-03T02:04:36.530Z,2.62
2019-05-03T02:07:08.590Z,1.70
2019-05-03T02:09:37.279Z,5.25
2019-05-03T02:12:06.039Z,4.08
2019-05-03T02:14:34.741Z,3.37
2019-05-03T02:17:05.991Z,2.72
2019-05-03T02:19:46.044Z,3.02
2019-05-03T02:22:17.470Z,2.02
2019-05-03T02:24:46.179Z,1.90
2019-05-03T02:27:14.951Z,2.42
2019-05-03T02:29:48.154Z,2.85
2019-05-03T02:32:26.756Z,2.20
2019-05-03T02:34:53.470Z,3.22
2019-05-03T02:37:22.460Z,2.60
2019-05-03T02:39:53.164Z,3.30
2019-05-03T02:42:26.533Z,8.08
2019-05-03T02:47:31.393Z,1.80
2019-05-03T02:50:05.659Z,2.00
2019-05-03T02:52:37.023Z,2.62
2019-05-03T02:55:16.051Z,3.20
2019-05-03T02:57:47.052Z,4.05
2019-05-03T03:00:25.588Z,3.10
2019-05-03T03:02:56.258Z,3.17
2019-05-03T03:05:25.405Z,4.20
2019-05-03T03:07:55.934Z,2.87
2019-05-03T03:10:26.445Z,3.15
2019-05-03T03:13:05.757Z,1.25
2019-05-03T03:15:36.335Z,4.30
2019-05-03T03:18:06.393Z,2.58
2019-05-03T03:20:36.615Z,2.77
2019-05-03T03:23:06.741Z,2.62
2019-05-03T03:25:38.478Z,7.92
2019-05-03T03:28:08.997Z,4.03
2019-05-03T03:30:57.786Z,29.27
2019-05-03T03:33:29.292Z,24.77
2019-05-03T03:36:06.983Z,4.35
2019-05-03T03:38:30.686Z,3.12
2019-05-03T03:41:00.245Z,4.45
2019-05-03T03:43:35.300Z,4.75
2019-05-03T03:46:05.409Z,7.45
2019-05-03T03:48:35.499Z,2.22
2019-05-03T03:51:05.161Z,3.12
2019-05-03T03:53:35.634Z,2.67
2019-05-03T03:56:05.649Z,4.40
2019-05-03T03:58:47.606Z,3.40
2019-05-03T04:01:16.298Z,3.75
2019-05-03T04:03:46.007Z,7.78
2019-05-03T04:06:15.601Z,8.18
2019-05-03T04:08:45.344Z,11.00
2019-05-03T04:11:15.626Z,10.55
2019-05-03T04:13:46.540Z,6.35
2019-05-03T04:16:33.069Z,4.12
2019-05-03T04:19:05.579Z,3.83
2019-05-03T04:21:37.930Z,7.87
2019-05-03T04:24:06.908Z,10.15
2019-05-03T04:26:35.864Z,19.82
2019-05-03T04:29:07.377Z,11.68
2019-05-03T04:31:36.745Z,3.50
2019-05-03T04:34:05.821Z,2.70
2019-05-03T04:36:37.831Z,3.27
2019-05-03T04:39:06.701Z,3.87
2019-05-03T04:41:35.809Z,3.72
2019-05-03T04:44:06.390Z,4.65
2019-05-03T04:46:35.895Z,2.95
2019-05-03T04:49:05.709Z,3.12
2019-05-03T04:51:35.120Z,2.75
2019-05-03T04:54:22.082Z,2.92
2019-05-03T04:56:50.754Z,5.58
2019-05-03T04:59:19.449Z,2.55
2019-05-03T05:01:51.523Z,2.22
2019-05-03T05:04:20.193Z,2.67
2019-05-03T05:06:51.716Z,1.98
2019-05-03T05:09:20.517Z,4.80
2019-05-03T05:11:49.410Z,2.65
2019-05-03T05:14:17.995Z,6.10
2019-05-03T05:16:46.871Z,4.53
2019-05-03T05:19:23.033Z,3.80
2019-05-03T05:21:58.916Z,3.22
2019-05-03T05:24:44.942Z,2.80
2019-05-03T05:27:26.224Z,1.72
2019-05-03T05:30:48.829Z,3.37
2019-05-03T05:32:47.258Z,2.87
2019-05-03T05:35:17.857Z,4.87
2019-05-03T05:37:46.623Z,3.92
2019-05-03T05:40:16.767Z,3.12
2019-05-03T05:42:45.482Z,7.28
2019-05-03T05:45:16.711Z,6.12
2019-05-03T05:48:05.547Z,5.10
2019-05-03T05:50:36.693Z,6.05
2019-05-03T05:53:05.454Z,3.37
2019-05-03T05:55:55.236Z,3.37
2019-05-03T05:58:34.756Z,5.08
2019-05-03T06:01:10.827Z,3.52
2019-05-03T06:03:39.616Z,3.92
2019-05-03T06:06:09.852Z,6.75
2019-05-03T06:08:45.995Z,4.70
2019-05-03T06:11:31.599Z,9.33
2019-05-03T06:14:05.107Z,25.65
2019-05-03T06:16:41.337Z,4.90
2019-05-03T06:19:15.607Z,125.72
2019-05-03T06:21:47.941Z,3.92
2019-05-03T06:24:24.896Z,17.48
2019-05-03T06:26:55.453Z,4.95
2019-05-03T06:29:24.786Z,2.70
2019-05-03T06:31:55.199Z,4.70
2019-05-03T06:34:25.170Z,3.50
2019-05-03T06:36:55.623Z,5.12
2019-05-03T06:39:24.896Z,3.15
2019-05-03T06:41:55.042Z,2.90
2019-05-03T06:44:28.251Z,4.35
2019-05-03T06:46:55.243Z,2.60
2019-05-03T06:49:25.511Z,4.72
2019-05-03T06:51:55.495Z,4.60
2019-05-03T06:54:26.847Z,3.05
2019-05-03T06:56:59.903Z,6.55
2019-05-03T06:59:39.980Z,2.98
2019-05-03T07:02:11.350Z,3.95
2019-05-03T07:04:45.239Z,5.90
2019-05-03T07:07:40.703Z,6.72
2019-05-03T07:10:27.871Z,3.37
2019-05-03T07:13:00.562Z,6.15
2019-05-03T07:15:29.462Z,5.10
2019-05-03T07:17:58.140Z,6.47
2019-05-03T07:20:27.010Z,3.42
2019-05-03T07:23:00.631Z,4.70
2019-05-03T07:25:28.690Z,6.05
2019-05-03T07:27:57.383Z,7.15
2019-05-03T07:30:26.087Z,4.03
2019-05-03T07:32:56.296Z,5.47
2019-05-03T07:35:25.275Z,3.50
2019-05-03T07:37:55.347Z,5.03
2019-05-03T07:40:25.379Z,3.80
2019-05-03T07:42:57.161Z,3.37
2019-05-03T07:45:25.868Z,3.75
2019-05-03T07:47:55.838Z,3.65
2019-05-03T07:50:25.777Z,2.60
2019-05-03T07:52:55.623Z,4.42
2019-05-03T07:55:42.965Z,6.58
2019-05-03T07:58:15.066Z,3.67
2019-05-03T08:00:44.578Z,4.87
2019-05-03T08:03:15.300Z,6.92
2019-05-03T08:05:45.437Z,4.22
2019-05-03T08:08:15.268Z,2.65
2019-05-03T08:10:45.013Z,3.70
2019-05-03T08:13:15.177Z,4.53
2019-05-03T08:15:45.235Z,3.67
2019-05-03T08:18:15.384Z,5.08
2019-05-03T08:20:45.139Z,3.70
2019-05-03T08:23:26.373Z,3.67
2019-05-03T08:25:44.662Z,5.00
2019-05-03T08:28:14.609Z,3.77
2019-05-03T08:30:51.271Z,5.78
2019-05-03T08:33:21.466Z,2.90
2019-05-03T08:35:55.603Z,3.15
2019-05-03T08:38:25.717Z,5.03
2019-05-03T08:40:56.011Z,3.20
2019-05-03T08:43:28.183Z,3.22
2019-05-03T08:45:56.874Z,2.67
2019-05-03T08:48:25.562Z,3.35
2019-05-03T08:50:55.432Z,4.55
2019-05-03T08:53:25.646Z,2.15
2019-05-03T08:55:55.271Z,5.15
2019-05-03T08:58:25.572Z,3.45
2019-05-03T09:00:55.576Z,4.03
2019-05-03T09:03:24.899Z,3.17
2019-05-03T09:05:56.373Z,3.42
2019-05-03T09:08:29.432Z,4.25
2019-05-03T09:11:02.485Z,2.85
2019-05-03T09:13:49.498Z,3.35
2019-05-03T09:16:18.254Z,2.83
2019-05-03T09:18:49.629Z,2.83
2019-05-03T09:21:18.303Z,5.60
2019-05-03T09:23:47.083Z,4.78
2019-05-03T09:26:19.391Z,3.72
2019-05-03T09:28:48.049Z,1.92
2019-05-03T09:31:16.835Z,2.22
2019-05-03T09:33:45.601Z,2.25
2019-05-03T09:36:14.820Z,2.83
2019-05-03T09:38:45.513Z,2.55
2019-05-03T09:41:15.213Z,2.80
2019-05-03T09:43:45.095Z,1.75
2019-05-03T09:46:14.693Z,6.75
2019-05-03T09:48:45.414Z,2.83
2019-05-03T09:51:14.762Z,3.65
2019-05-03T09:53:51.367Z,3.67
2019-05-03T09:56:21.713Z,2.70
2019-05-03T09:58:51.572Z,3.27
2019-05-03T10:01:20.228Z,3.90
2019-05-03T10:03:49.709Z,2.77
2019-05-03T10:06:18.346Z,1.82
2019-05-03T10:08:49.832Z,1.32
2019-05-03T10:11:21.097Z,4.67
2019-05-03T10:13:49.861Z,3.75
2019-05-03T10:16:24.833Z,1.98
2019-05-03T10:18:55.948Z,4.60
2019-05-03T10:21:26.182Z,4.37
2019-05-03T10:23:59.368Z,3.35
2019-05-03T10:26:28.460Z,3.70
2019-05-03T10:28:57.228Z,4.33
2019-05-03T10:31:27.552Z,4.87
2019-05-03T10:33:57.791Z,3.70
2019-05-03T10:36:27.585Z,4.35
2019-05-03T10:38:56.376Z,1.85
2019-05-03T10:41:26.244Z,3.02
2019-05-03T10:43:58.771Z,1.55
2019-05-03T10:46:34.376Z,2.05
2019-05-03T10:49:02.789Z,2.92
2019-05-03T10:51:36.845Z,2.22
2019-05-03T10:54:08.211Z,1.60
2019-05-03T10:56:52.643Z,2.50
2019-05-03T10:59:21.388Z,3.92
2019-05-03T11:01:51.630Z,3.77
2019-05-03T11:04:20.416Z,3.90
2019-05-03T11:06:49.033Z,2.40
2019-05-03T11:09:17.876Z,3.17
2019-05-03T11:11:48.607Z,2.60
2019-05-03T11:14:17.306Z,3.85
2019-05-03T11:16:47.049Z,2.72
2019-05-03T11:19:15.786Z,2.22
2019-05-03T11:21:45.547Z,3.35
2019-05-03T11:24:17.985Z,3.20
2019-05-03T11:26:48.297Z,3.42
2019-05-03T11:29:17.078Z,3.37
2019-05-03T11:31:55.131Z,4.08
2019-05-03T11:34:27.888Z,3.15
2019-05-03T11:37:14.879Z,3.75
2019-05-03T11:39:45.203Z,2.62
2019-05-03T11:42:19.607Z,2.35
2019-05-03T11:44:47.184Z,5.92
2019-05-03T11:47:15.894Z,12.10
2019-05-03T11:49:45.372Z,4.03
2019-05-03T11:52:15.902Z,3.40
2019-05-03T11:54:45.236Z,4.33
2019-05-03T11:57:26.170Z,5.47
2019-05-03T11:59:55.404Z,14.28
2019-05-03T12:02:31.328Z,9.43
2019-05-03T12:05:04.874Z,5.70
2019-05-03T12:07:39.591Z,5.50
2019-05-03T12:10:16.425Z,4.60
2019-05-03T12:12:39.411Z,3.12
2019-05-03T12:15:08.115Z,2.42
2019-05-03T12:17:51.845Z,3.60
2019-05-03T12:20:13.226Z,2.45
2019-05-03T12:22:42.675Z,6.15
2019-05-03T12:25:12.439Z,3.65
2019-05-03T12:27:41.732Z,6.05
2019-05-03T12:30:10.443Z,6.15
2019-05-03T12:32:44.534Z,3.52
2019-05-03T12:35:15.386Z,3.92
2019-05-03T12:37:43.569Z,3.22
2019-05-03T12:40:14.992Z,4.62
2019-05-03T12:42:45.257Z,3.58
2019-05-03T12:45:15.253Z,2.33
2019-05-03T12:47:45.269Z,2.83
2019-05-03T12:50:15.613Z,4.05
2019-05-03T12:52:50.364Z,5.37
2019-05-03T12:55:15.403Z,2.50
2019-05-03T12:57:45.704Z,2.37
2019-05-03T13:00:25.899Z,3.33
2019-05-03T13:02:58.984Z,3.87
2019-05-03T13:05:32.046Z,2.95
2019-05-03T13:08:23.607Z,1.98
2019-05-03T13:10:52.270Z,2.25
2019-05-03T13:13:21.044Z,1.77
2019-05-03T13:15:49.836Z,1.30
2019-05-03T13:18:21.032Z,1.42
2019-05-03T13:20:49.782Z,4.83
2019-05-03T13:23:18.472Z,2.65
2019-05-03T13:25:47.154Z,3.12
2019-05-03T13:28:15.921Z,4.50
2019-05-03T13:30:46.181Z,1.47
2019-05-03T13:33:15.246Z,2.02
2019-05-03T13:35:44.654Z,2.35
2019-05-03T13:38:13.527Z,3.37
2019-05-03T13:40:42.313Z,5.67
2019-05-03T13:43:11.016Z,2.22
2019-05-03T13:45:39.786Z,3.08
2019-05-03T13:48:08.489Z,3.47
2019-05-03T13:50:37.262Z,4.53
2019-05-03T13:53:06.050Z,2.42
2019-05-03T13:55:35.272Z,3.55
2019-05-03T13:58:05.216Z,2.35
2019-05-03T14:00:34.589Z,2.30
2019-05-03T14:03:04.564Z,3.62
2019-05-03T14:05:35.197Z,1.82
2019-05-03T14:08:05.008Z,2.92
2019-05-03T14:10:35.886Z,3.40
2019-05-03T14:13:05.568Z,3.95
2019-05-03T14:15:34.984Z,2.87
2019-05-03T14:18:05.810Z,1.20
2019-05-03T14:20:55.185Z,3.40
2019-05-03T14:23:25.335Z,2.60
2019-05-03T14:25:55.261Z,2.87
2019-05-03T14:28:25.238Z,2.87
2019-05-03T14:30:54.830Z,3.02
2019-05-03T14:33:24.937Z,4.25
2019-05-03T14:35:54.699Z,2.83
2019-05-03T14:38:25.465Z,2.00
2019-05-03T14:40:56.461Z,1.50
2019-05-03T14:43:25.318Z,4.97
2019-05-03T14:45:55.204Z,3.65
2019-05-03T14:48:25.011Z,4.58
2019-05-03T14:50:57.113Z,1.90
2019-05-03T14:53:26.729Z,5.62
2019-05-03T14:55:56.978Z,3.52
2019-05-03T14:58:45.655Z,15.63
2019-05-03T15:01:18.796Z,9.30
2019-05-03T15:03:47.569Z,6.97
2019-05-03T15:06:16.262Z,9.20
2019-05-03T15:08:45.041Z,3.52
2019-05-03T15:11:14.918Z,3.55
2019-05-03T15:13:45.562Z,4.80
2019-05-03T15:16:14.498Z,1.72
2019-05-03T15:18:45.319Z,2.35
2019-05-03T15:21:14.643Z,3.65
2019-05-03T15:23:46.019Z,1.80
2019-05-03T15:26:13.743Z,1.87
2019-05-03T15:28:47.733Z,2.50
2019-05-03T15:31:16.520Z,5.72
2019-05-03T15:33:45.165Z,4.47
2019-05-03T15:36:15.449Z,3.22
2019-05-03T15:38:46.877Z,1.72
2019-05-03T15:41:15.583Z,2.83
2019-05-03T15:43:45.902Z,2.83
2019-05-03T15:46:28.436Z,2.83
2019-05-03T15:48:58.797Z,13.72
2019-05-03T15:51:27.511Z,4.65
2019-05-03T15:53:56.223Z,149.35
2019-05-03T15:56:25.283Z,14.50
2019-05-03T15:58:55.168Z,5.47
2019-05-03T16:01:29.734Z,6.00
2019-05-03T16:03:58.408Z,13.03
2019-05-03T16:06:28.000Z,23.87
2019-05-03T16:08:56.805Z,7.20
2019-05-03T16:11:25.526Z,7.12
2019-05-03T16:13:55.399Z,4.87
2019-05-03T16:16:24.897Z,4.67
2019-05-03T16:18:53.897Z,10.95
2019-05-03T16:21:22.633Z,11.40
2019-05-03T16:23:51.305Z,5.47
2019-05-03T16:26:19.975Z,6.08
2019-05-03T16:28:52.837Z,10.38
2019-05-03T16:31:24.841Z,8.63
2019-05-03T16:33:55.010Z,9.93
2019-05-03T16:36:23.920Z,8.48
2019-05-03T16:38:52.628Z,12.93
2019-05-03T16:41:21.383Z,13.70
2019-05-03T16:43:50.099Z,11.00
2019-05-03T16:46:18.860Z,15.55
2019-05-03T16:48:47.646Z,13.50
2019-05-03T16:51:17.298Z,23.18
2019-05-03T16:53:46.344Z,15.18
2019-05-03T16:56:18.482Z,18.65
2019-05-03T16:58:51.133Z,44.83
2019-05-03T17:01:19.885Z,40.23
2019-05-03T17:03:51.145Z,24.67
2019-05-03T17:06:21.547Z,19.40
2019-05-03T17:08:51.889Z,20.35
2019-05-03T17:11:24.164Z,21.82
2019-05-03T17:13:52.518Z,15.10
2019-05-03T17:16:21.227Z,15.53
2019-05-03T17:18:49.991Z,12.93
2019-05-03T17:21:18.731Z,12.55
2019-05-03T17:23:47.469Z,14.60
2019-05-03T17:26:17.663Z,12.75
2019-05-03T17:28:46.497Z,16.85
2019-05-03T17:31:17.932Z,11.28
2019-05-03T17:33:53.638Z,8.75
2019-05-03T17:36:17.038Z,6.65
2019-05-03T17:38:46.457Z,8.03
2019-05-03T17:41:35.192Z,9.70
2019-05-03T17:44:06.320Z,13.98
2019-05-03T17:46:35.961Z,11.05
2019-05-03T17:49:05.284Z,7.67
2019-05-03T17:51:48.072Z,8.23
2019-05-03T17:54:22.700Z,8.85
2019-05-03T17:56:55.019Z,8.65
2019-05-03T17:59:26.506Z,6.17
2019-05-03T18:01:56.777Z,11.00
2019-05-03T18:04:27.135Z,9.03
2019-05-03T18:07:14.950Z,12.00
2019-05-03T18:09:45.517Z,12.65
2019-05-03T18:12:15.084Z,9.18
2019-05-03T18:14:45.019Z,10.13
2019-05-03T18:17:14.907Z,8.83
2019-05-03T18:19:49.883Z,9.75
2019-05-03T18:22:22.004Z,10.08
2019-05-03T18:24:50.843Z,10.70
2019-05-03T18:27:24.885Z,39.03
2019-05-03T18:29:53.035Z,26.62
2019-05-03T18:32:21.813Z,69.07
2019-05-03T18:34:51.617Z,65.85
2019-05-03T18:37:20.543Z,77.78
2019-05-03T18:39:49.314Z,73.33
2019-05-03T18:42:19.637Z,68.30
2019-05-03T18:44:49.862Z,67.50
2019-05-03T18:47:20.019Z,66.57
2019-05-03T18:49:48.749Z,62.95
2019-05-03T18:52:17.456Z,52.45
2019-05-03T18:54:46.221Z,63.13
2019-05-03T18:57:15.649Z,57.23
2019-05-03T18:59:44.923Z,55.15
2019-05-03T19:02:14.930Z,62.80
2019-05-03T19:04:50.911Z,53.63
2019-05-03T19:07:29.837Z,55.90
2019-05-03T19:10:04.997Z,52.85
2019-05-03T19:12:35.690Z,49.85
2019-05-03T19:15:14.404Z,49.90
2019-05-03T19:17:46.982Z,59.45
2019-05-03T19:20:17.295Z,58.90
2019-05-03T19:22:45.990Z,63.78
2019-05-03T19:25:14.923Z,63.55
2019-05-03T19:27:45.156Z,60.80
2019-05-03T19:30:14.864Z,79.17
2019-05-03T19:32:45.041Z,92.65
2019-05-03T19:35:15.720Z,101.33
2019-05-03T19:37:46.658Z,76.90
2019-05-03T19:40:15.511Z,142.90
2019-05-03T19:42:44.799Z,113.28
2019-05-03T19:45:15.206Z,98.92
2019-05-03T19:47:46.979Z,86.45
2019-05-03T19:50:16.707Z,90.32
2019-05-03T19:53:05.341Z,95.03
2019-05-03T19:55:35.078Z,79.30
2019-05-03T19:58:06.316Z,101.42
2019-05-03T20:00:39.717Z,101.22
2019-05-03T20:03:19.435Z,116.90
2019-05-03T20:05:49.671Z,113.62
2019-05-03T20:08:35.232Z,101.38
2019-05-03T20:11:17.642Z,93.35
2019-05-03T20:13:50.413Z,93.25
2019-05-03T20:16:23.392Z,89.15
2019-05-03T20:18:55.375Z,87.92
2019-05-03T20:21:25.254Z,89.13
2019-05-03T20:23:55.506Z,84.40
2019-05-03T20:26:25.293Z,82.53
2019-05-03T20:28:55.337Z,78.72
2019-05-03T20:31:25.245Z,74.85
2019-05-03T20:33:55.084Z,73.45
2019-05-03T20:36:27.445Z,67.08
2019-05-03T20:38:58.591Z,83.72
2019-05-03T20:41:27.662Z,74.70
2019-05-03T20:43:57.990Z,70.20
2019-05-03T20:46:49.513Z,65.25
2019-05-03T20:49:18.215Z,57.50
2019-05-03T20:51:50.960Z,59.33
2019-05-03T20:54:17.512Z,61.95
2019-05-03T20:56:46.403Z,64.70
2019-05-03T20:59:19.254Z,63.48
2019-05-03T21:01:45.526Z,93.52
2019-05-03T21:04:15.405Z,80.57
2019-05-03T21:06:45.464Z,63.92
2019-05-03T21:09:15.209Z,66.45
2019-05-03T21:11:45.059Z,67.17
2019-05-03T21:14:15.540Z,65.55
2019-05-03T21:16:45.926Z,66.60
2019-05-03T21:19:21.980Z,67.70
2019-05-03T21:21:52.318Z,65.72
2019-05-03T21:24:38.827Z,74.20
2019-05-03T21:27:07.593Z,72.25
2019-05-03T21:29:37.837Z,67.10
2019-05-03T21:32:06.704Z,66.82
2019-05-03T21:34:35.492Z,66.40
2019-05-03T21:37:04.199Z,63.85
2019-05-03T21:39:34.727Z,56.58
2019-05-03T21:42:04.717Z,58.35
2019-05-03T21:44:34.948Z,64.07
2019-05-03T21:47:19.952Z,79.25
2019-05-03T21:49:50.251Z,79.40
2019-05-03T21:52:19.023Z,69.45
2019-05-03T21:54:47.818Z,69.15
2019-05-03T21:57:16.584Z,64.82
2019-05-03T21:59:45.510Z,66.95
2019-05-03T22:02:15.433Z,62.33
2019-05-03T22:04:44.550Z,64.60
2019-05-03T22:07:13.352Z,59.80
2019-05-03T22:09:45.172Z,58.00
2019-05-03T22:12:15.158Z,56.23
2019-05-03T22:14:46.506Z,58.92
2019-05-03T22:17:34.567Z,55.33
2019-05-03T22:20:13.883Z,53.17
2019-05-03T22:22:47.395Z,43.40
2019-05-03T22:27:46.077Z,45.00
2019-05-03T22:30:15.789Z,45.12
2019-05-03T22:32:44.592Z,43.28
2019-05-03T22:35:15.519Z,47.23
2019-05-03T22:37:44.630Z,43.63
2019-05-03T22:40:14.622Z,40.23
2019-05-03T22:42:44.831Z,44.55
2019-05-03T22:45:13.771Z,39.83
2019-05-03T22:47:44.471Z,44.67
2019-05-03T22:50:14.762Z,43.75
2019-05-03T22:52:45.362Z,44.18
2019-05-03T22:55:15.300Z,38.92
2019-05-03T22:57:46.433Z,42.55
2019-05-03T23:00:16.397Z,38.15
2019-05-03T23:02:45.542Z,39.85
2019-05-03T23:05:14.412Z,37.20
2019-05-03T23:07:44.234Z,39.20
2019-05-03T23:10:14.774Z,36.73
2019-05-03T23:12:45.195Z,37.83
2019-05-03T23:15:15.076Z,39.38
2019-05-03T23:17:45.153Z,40.48
2019-05-03T23:20:27.498Z,37.08
2019-05-03T23:23:00.227Z,37.30
2019-05-03T23:25:30.726Z,48.42
2019-05-03T23:27:59.272Z,73.07
2019-05-03T23:30:27.974Z,54.27
2019-05-03T23:32:56.744Z,41.58
2019-05-03T23:35:25.447Z,42.15
2019-05-03T23:37:54.387Z,35.70
2019-05-03T23:40:25.282Z,35.13
2019-05-03T23:42:54.466Z,32.40
2019-05-03T23:45:25.398Z,31.52
2019-05-03T23:47:53.709Z,31.52
2019-05-03T23:50:24.915Z,34.08
2019-05-03T23:52:54.485Z,32.00
2019-05-03T23:55:28.713Z,31.48
2019-05-03T23:57:57.542Z,28.45
